Time;durP1;ratioP1;P1;durP2;ratioP2;P2;SDS_P1;SDS_P2;PMS_P1;PMS_P2;Temp;Humidity;BMP_temperature;BMP_pressure;BME280_temperature;BME280_humidity;BME280_pressure;Samples;Min_cycle;Max_cycle;Signal;HPM_P1;HPM_P2
2023/09/30 00:01:22;;;;;;;12.23;5.23;;;;;;;;;;5013133;28;20285;-57
2023/09/30 00:03:48;;;;;;;9.50;4.73;;;;;;;;;;5010569;28;20209;-56
2023/09/30 00:06:14;;;;;;;11.80;4.73;;;;;;;;;;5011279;28;20586;-56
2023/09/30 00:08:41;;;;;;;12.63;4.30;;;;;;;;;;5012890;28;20289;-56
2023/09/30 00:11:09;;;;;;;11.23;4.63;;;;;;;;;;5012913;28;20618;-56
2023/09/30 00:13:35;;;;;;;12.63;5.00;;;;;;;;;;5013285;28;20209;-56
2023/09/30 00:16:01;;;;;;;11.17;4.80;;;;;;;;;;5013098;28;20224;-56
2023/09/30 00:18:27;;;;;;;12.13;4.87;;;;;;;;;;5013095;28;20202;-56
2023/09/30 00:20:57;;;;;;;11.10;4.53;;;;;;;;;;5012684;28;20660;-56
2023/09/30 00:23:23;;;;;;;14.40;4.67;;;;;;;;;;5012754;28;20288;-57
2023/09/30 00:25:50;;;;;;;15.03;4.90;;;;;;;;;;5012615;28;20237;-58
2023/09/30 00:28:18;;;;;;;18.07;5.67;;;;;;;;;;5012919;28;20248;-56
2023/09/30 00:30:47;;;;;;;12.30;4.63;;;;;;;;;;5012507;28;20217;-55
2023/09/30 00:33:13;;;;;;;15.03;5.33;;;;;;;;;;5012387;28;20201;-54
2023/09/30 00:35:39;;;;;;;9.17;4.53;;;;;;;;;;5012511;28;20217;-55
2023/09/30 00:38:05;;;;;;;10.87;4.63;;;;;;;;;;5012473;28;20244;-55
2023/09/30 00:40:31;;;;;;;11.57;4.50;;;;;;;;;;5012504;28;20193;-55
2023/09/30 00:42:58;;;;;;;10.00;4.57;;;;;;;;;;5012369;28;20680;-55
2023/09/30 00:45:25;;;;;;;11.07;5.10;;;;;;;;;;5012305;28;20283;-55
2023/09/30 00:47:51;;;;;;;9.90;5.23;;;;;;;;;;5012149;28;20575;-55
2023/09/30 00:50:19;;;;;;;12.43;5.47;;;;;;;;;;5012106;28;20186;-55
2023/09/30 00:52:45;;;;;;;17.07;5.70;;;;;;;;;;5012340;28;20658;-55
2023/09/30 00:55:12;;;;;;;15.00;5.20;;;;;;;;;;5011977;28;20186;-55
2023/09/30 00:57:39;;;;;;;10.87;4.37;;;;;;;;;;5011746;28;20202;-55
2023/09/30 01:00:06;;;;;;;18.73;5.57;;;;;;;;;;5011990;28;20214;-55
2023/09/30 01:02:34;;;;;;;10.20;4.70;;;;;;;;;;5011948;28;20263;-55
2023/09/30 01:05:01;;;;;;;12.97;4.80;;;;;;;;;;5011623;28;20249;-55
2023/09/30 01:07:27;;;;;;;9.77;4.43;;;;;;;;;;5011668;28;20671;-55
2023/09/30 01:09:53;;;;;;;13.73;5.20;;;;;;;;;;5011412;28;20190;-54
2023/09/30 01:12:19;;;;;;;16.10;4.90;;;;;;;;;;5011844;28;20624;-55
2023/09/30 01:14:45;;;;;;;14.50;5.60;;;;;;;;;;5011861;28;20648;-55
2023/09/30 01:17:13;;;;;;;16.00;4.97;;;;;;;;;;5011656;28;20189;-55
2023/09/30 01:19:42;;;;;;;12.10;5.07;;;;;;;;;;5011570;28;20206;-55
2023/09/30 01:22:09;;;;;;;11.37;4.43;;;;;;;;;;5011893;28;20649;-55
2023/09/30 01:24:39;;;;;;;14.60;4.90;;;;;;;;;;5011857;28;20224;-55
2023/09/30 01:27:05;;;;;;;13.90;5.17;;;;;;;;;;5011969;28;20201;-55
2023/09/30 01:29:32;;;;;;;12.50;5.07;;;;;;;;;;5011968;28;20210;-55
2023/09/30 01:31:58;;;;;;;10.87;4.67;;;;;;;;;;5011810;28;20218;-55
2023/09/30 01:34:24;;;;;;;11.10;5.03;;;;;;;;;;5011763;28;20611;-55
2023/09/30 01:36:50;;;;;;;12.43;4.87;;;;;;;;;;5011680;28;20304;-55
2023/09/30 01:39:18;;;;;;;16.07;5.60;;;;;;;;;;5011596;28;20247;-55
2023/09/30 01:41:44;;;;;;;12.17;5.10;;;;;;;;;;5011673;28;20668;-55
2023/09/30 01:44:09;;;;;;;14.40;5.10;;;;;;;;;;5012578;28;20276;-55
2023/09/30 01:46:36;;;;;;;11.73;4.97;;;;;;;;;;5015711;28;20280;-54
2023/09/30 01:49:03;;;;;;;11.60;5.30;;;;;;;;;;5015704;28;20690;-55
2023/09/30 01:51:29;;;;;;;12.33;4.60;;;;;;;;;;5015653;28;20201;-55
2023/09/30 01:53:55;;;;;;;12.43;5.00;;;;;;;;;;5015411;28;20217;-55
2023/09/30 01:56:23;;;;;;;12.47;4.97;;;;;;;;;;5015586;28;20545;-55
2023/09/30 01:58:49;;;;;;;10.53;4.67;;;;;;;;;;5015469;28;20205;-55
2023/09/30 02:01:15;;;;;;;11.00;4.90;;;;;;;;;;5015492;28;20292;-55
2023/09/30 02:03:41;;;;;;;15.67;4.80;;;;;;;;;;5015292;28;20251;-55
2023/09/30 02:06:07;;;;;;;15.73;5.40;;;;;;;;;;5015276;28;20247;-55
2023/09/30 02:08:35;;;;;;;15.80;5.97;;;;;;;;;;5015141;28;20197;-55
2023/09/30 02:11:01;;;;;;;12.20;4.87;;;;;;;;;;5014993;28;20218;-55
2023/09/30 02:13:28;;;;;;;14.20;5.50;;;;;;;;;;5014928;28;20695;-55
2023/09/30 02:15:55;;;;;;;15.07;6.20;;;;;;;;;;5014874;28;20212;-55
2023/09/30 02:18:21;;;;;;;15.33;5.53;;;;;;;;;;5015032;28;20201;-55
2023/09/30 02:20:47;;;;;;;13.80;5.77;;;;;;;;;;5014854;28;20202;-55
2023/09/30 02:23:16;;;;;;;13.10;5.77;;;;;;;;;;5014793;28;20536;-55
2023/09/30 02:25:43;;;;;;;14.40;6.20;;;;;;;;;;5014512;28;20256;-55
2023/09/30 02:28:09;;;;;;;13.87;5.90;;;;;;;;;;5014654;28;20200;-55
2023/09/30 02:30:36;;;;;;;15.47;6.43;;;;;;;;;;5014717;28;20653;-55
2023/09/30 02:33:04;;;;;;;17.27;6.77;;;;;;;;;;5014635;28;20205;-55
2023/09/30 02:35:30;;;;;;;16.53;6.63;;;;;;;;;;5014562;28;20684;-55
2023/09/30 02:37:56;;;;;;;16.67;6.13;;;;;;;;;;5014297;28;20241;-55
2023/09/30 02:40:24;;;;;;;18.97;6.70;;;;;;;;;;5014538;28;20197;-55
2023/09/30 02:42:51;;;;;;;13.57;6.33;;;;;;;;;;5014483;28;20202;-55
2023/09/30 02:45:17;;;;;;;13.53;6.37;;;;;;;;;;5014607;28;20240;-55
2023/09/30 02:47:44;;;;;;;18.20;6.27;;;;;;;;;;5014288;28;20225;-55
2023/09/30 02:50:13;;;;;;;17.33;6.47;;;;;;;;;;5014395;28;20251;-55
2023/09/30 02:52:42;;;;;;;15.50;6.23;;;;;;;;;;5014233;28;20248;-55
2023/09/30 02:55:09;;;;;;;15.43;6.33;;;;;;;;;;5013784;28;20252;-55
2023/09/30 02:57:35;;;;;;;18.23;7.00;;;;;;;;;;5014219;28;20292;-55
2023/09/30 03:00:11;;;;;;;16.63;6.60;;;;;;;;;;5014129;28;20202;-55
2023/09/30 03:02:38;;;;;;;15.10;5.97;;;;;;;;;;5014089;28;20582;-55
2023/09/30 03:05:06;;;;;;;17.10;7.20;;;;;;;;;;5013949;28;20228;-55
2023/09/30 03:07:33;;;;;;;12.83;6.00;;;;;;;;;;5014120;28;20209;-55
2023/09/30 03:10:04;;;;;;;12.33;5.80;;;;;;;;;;5013882;28;20190;-55
2023/09/30 03:12:31;;;;;;;12.93;5.50;;;;;;;;;;5014093;28;20197;-55
2023/09/30 03:14:57;;;;;;;14.57;5.87;;;;;;;;;;5013810;28;20285;-55
2023/09/30 03:17:25;;;;;;;13.63;5.73;;;;;;;;;;5013888;28;20206;-55
2023/09/30 03:19:51;;;;;;;14.63;5.93;;;;;;;;;;5013781;28;20201;-55
2023/09/30 03:22:19;;;;;;;15.60;5.93;;;;;;;;;;5013936;28;20198;-55
2023/09/30 03:24:45;;;;;;;13.63;5.63;;;;;;;;;;5013491;28;20309;-55
2023/09/30 03:27:11;;;;;;;12.13;5.10;;;;;;;;;;5013586;28;20238;-55
2023/09/30 03:29:38;;;;;;;13.90;6.27;;;;;;;;;;5013530;28;20284;-55
2023/09/30 03:32:04;;;;;;;12.07;4.90;;;;;;;;;;5013541;28;20205;-55
2023/09/30 03:34:30;;;;;;;11.17;4.57;;;;;;;;;;5013523;28;20193;-55
2023/09/30 03:36:58;;;;;;;12.80;4.60;;;;;;;;;;5013474;28;20241;-55
2023/09/30 03:39:27;;;;;;;14.60;4.97;;;;;;;;;;5013284;28;20249;-55
2023/09/30 03:41:54;;;;;;;13.97;5.43;;;;;;;;;;5013230;28;20612;-55
2023/09/30 03:44:20;;;;;;;15.50;5.00;;;;;;;;;;5013327;28;20707;-55
2023/09/30 03:46:46;;;;;;;14.63;5.07;;;;;;;;;;5013390;28;20212;-55
2023/09/30 03:49:13;;;;;;;10.50;5.17;;;;;;;;;;5013096;28;20339;-55
2023/09/30 03:51:39;;;;;;;14.33;5.17;;;;;;;;;;5013201;28;20285;-55
2023/09/30 03:54:06;;;;;;;13.83;5.57;;;;;;;;;;5012985;28;20285;-55
2023/09/30 03:56:34;;;;;;;18.27;5.47;;;;;;;;;;5013183;28;20209;-55
2023/09/30 03:59:00;;;;;;;11.27;4.97;;;;;;;;;;5012884;28;20300;-55
2023/09/30 04:01:26;;;;;;;17.27;5.87;;;;;;;;;;5013008;28;20280;-55
2023/09/30 04:03:56;;;;;;;15.03;5.10;;;;;;;;;;5012815;28;20280;-55
2023/09/30 04:06:22;;;;;;;12.10;5.10;;;;;;;;;;5012516;28;20226;-55
2023/09/30 04:08:48;;;;;;;11.47;4.60;;;;;;;;;;5012540;28;20229;-55
2023/09/30 04:11:18;;;;;;;11.33;5.10;;;;;;;;;;5012854;28;20236;-55
2023/09/30 04:13:45;;;;;;;17.03;5.57;;;;;;;;;;5012690;28;20206;-55
2023/09/30 04:16:11;;;;;;;15.53;5.93;;;;;;;;;;5012684;28;20205;-55
2023/09/30 04:18:40;;;;;;;14.27;6.13;;;;;;;;;;5012711;28;20609;-55
2023/09/30 04:21:07;;;;;;;11.33;4.77;;;;;;;;;;5012907;28;20212;-55
2023/09/30 04:23:36;;;;;;;9.97;4.40;;;;;;;;;;5012663;28;20223;-55
2023/09/30 04:26:02;;;;;;;12.30;4.97;;;;;;;;;;5012503;28;20699;-55
2023/09/30 04:28:28;;;;;;;10.87;4.63;;;;;;;;;;5012518;28;20243;-55
2023/09/30 04:30:56;;;;;;;12.70;4.87;;;;;;;;;;5012418;28;20197;-55
2023/09/30 04:33:24;;;;;;;13.67;5.00;;;;;;;;;;5012451;28;20252;-55
2023/09/30 04:35:50;;;;;;;9.70;4.53;;;;;;;;;;5012234;28;20233;-55
2023/09/30 04:38:16;;;;;;;12.57;4.73;;;;;;;;;;5012279;28;20241;-55
2023/09/30 04:40:44;;;;;;;9.80;4.13;;;;;;;;;;5012261;28;20198;-55
2023/09/30 04:43:10;;;;;;;14.80;4.67;;;;;;;;;;5012407;28;20205;-55
2023/09/30 04:45:36;;;;;;;10.37;4.97;;;;;;;;;;5012178;28;20229;-55
2023/09/30 04:48:04;;;;;;;8.77;4.60;;;;;;;;;;5012193;28;20213;-55
2023/09/30 04:50:30;;;;;;;10.37;4.70;;;;;;;;;;5012245;28;20683;-55
2023/09/30 04:52:57;;;;;;;10.63;4.77;;;;;;;;;;5012025;28;20250;-55
2023/09/30 04:55:23;;;;;;;9.17;4.53;;;;;;;;;;5012243;28;20197;-55
2023/09/30 04:57:50;;;;;;;8.77;4.43;;;;;;;;;;5012088;28;20193;-55
2023/09/30 05:00:24;;;;;;;10.40;4.60;;;;;;;;;;5012117;28;20296;-55
2023/09/30 05:02:50;;;;;;;11.27;4.07;;;;;;;;;;5012011;28;20201;-55
2023/09/30 05:05:18;;;;;;;14.47;4.77;;;;;;;;;;5011996;28;20233;-55
2023/09/30 05:07:46;;;;;;;11.63;4.47;;;;;;;;;;5011870;28;20205;-55
2023/09/30 05:10:16;;;;;;;10.53;4.10;;;;;;;;;;5011911;28;20201;-55
2023/09/30 05:12:45;;;;;;;11.30;4.27;;;;;;;;;;5011821;28;20415;-55
2023/09/30 05:15:11;;;;;;;10.17;4.60;;;;;;;;;;5011907;28;20198;-55
2023/09/30 05:17:37;;;;;;;16.57;4.60;;;;;;;;;;5011710;28;20198;-55
2023/09/30 05:20:06;;;;;;;11.07;4.13;;;;;;;;;;5011765;28;20683;-55
2023/09/30 05:22:34;;;;;;;10.67;5.27;;;;;;;;;;5011829;28;20234;-55
2023/09/30 05:25:00;;;;;;;13.83;4.93;;;;;;;;;;5011540;28;20214;-56
2023/09/30 05:27:27;;;;;;;12.47;4.43;;;;;;;;;;5011857;28;20648;-55
2023/09/30 05:29:53;;;;;;;11.73;4.63;;;;;;;;;;5011602;28;20198;-55
2023/09/30 05:32:19;;;;;;;10.37;4.33;;;;;;;;;;5011468;28;20193;-55
2023/09/30 05:34:45;;;;;;;9.47;4.10;;;;;;;;;;5011279;28;20178;-55
2023/09/30 05:37:12;;;;;;;12.00;4.77;;;;;;;;;;5010960;28;20667;-55
2023/09/30 05:39:40;;;;;;;11.80;4.00;;;;;;;;;;5011279;28;20272;-55
2023/09/30 05:42:06;;;;;;;13.33;4.40;;;;;;;;;;5011435;28;20209;-55
2023/09/30 05:44:32;;;;;;;7.73;3.83;;;;;;;;;;5011470;28;20678;-55
2023/09/30 05:46:59;;;;;;;8.63;3.77;;;;;;;;;;5011435;28;20569;-55
2023/09/30 05:49:25;;;;;;;11.27;4.53;;;;;;;;;;5011676;28;20227;-55
2023/09/30 05:51:51;;;;;;;12.27;5.20;;;;;;;;;;5011677;28;20213;-56
2023/09/30 05:54:18;;;;;;;10.33;3.90;;;;;;;;;;5011493;28;20193;-55
2023/09/30 05:56:45;;;;;;;12.00;5.20;;;;;;;;;;5011436;28;20564;-55
2023/09/30 05:59:13;;;;;;;12.50;4.33;;;;;;;;;;5011606;28;20205;-55
2023/09/30 06:01:39;;;;;;;9.93;3.77;;;;;;;;;;5011355;28;20276;-56
2023/09/30 06:04:05;;;;;;;11.37;4.60;;;;;;;;;;5011270;28;20201;-55
2023/09/30 06:06:32;;;;;;;11.97;4.43;;;;;;;;;;4995904;28;20257;-55
2023/09/30 06:08:58;;;;;;;15.93;5.37;;;;;;;;;;4991494;28;20243;-55
2023/09/30 06:11:25;;;;;;;11.70;4.40;;;;;;;;;;4991668;28;20672;-55
2023/09/30 06:13:55;;;;;;;10.30;4.37;;;;;;;;;;4991624;28;20202;-55
2023/09/30 06:16:21;;;;;;;12.27;4.97;;;;;;;;;;5001519;28;20678;-55
2023/09/30 06:18:48;;;;;;;12.97;4.80;;;;;;;;;;5011120;28;20206;-55
2023/09/30 06:21:16;;;;;;;10.33;4.70;;;;;;;;;;5011272;28;20208;-56
2023/09/30 06:23:43;;;;;;;11.43;4.90;;;;;;;;;;5011236;28;20198;-56
2023/09/30 06:26:09;;;;;;;13.37;4.80;;;;;;;;;;5011209;28;20680;-56
2023/09/30 06:28:40;;;;;;;13.50;4.20;;;;;;;;;;5011432;28;20284;-56
2023/09/30 06:31:08;;;;;;;11.10;4.57;;;;;;;;;;5013368;28;20236;-56
2023/09/30 06:33:34;;;;;;;9.67;3.97;;;;;;;;;;5014997;28;20292;-56
2023/09/30 06:36:02;;;;;;;10.70;4.57;;;;;;;;;;5014537;28;20280;-56
2023/09/30 06:38:28;;;;;;;15.00;5.13;;;;;;;;;;5014597;28;20766;-56
2023/09/30 06:40:54;;;;;;;11.33;4.57;;;;;;;;;;5014522;28;20201;-56
2023/09/30 06:43:20;;;;;;;11.67;4.57;;;;;;;;;;5014771;28;20756;-56
2023/09/30 06:45:46;;;;;;;7.70;3.93;;;;;;;;;;5014421;28;20711;-55
2023/09/30 06:48:15;;;;;;;9.40;4.30;;;;;;;;;;5014527;28;20608;-55
2023/09/30 06:50:44;;;;;;;10.67;4.67;;;;;;;;;;5014884;28;20292;-55
2023/09/30 06:53:10;;;;;;;12.13;3.90;;;;;;;;;;5014209;28;20205;-55
2023/09/30 06:55:37;;;;;;;13.50;4.93;;;;;;;;;;5014394;28;20243;-55
2023/09/30 06:58:07;;;;;;;13.17;4.77;;;;;;;;;;5014660;28;20227;-55
2023/09/30 07:00:33;;;;;;;11.23;4.83;;;;;;;;;;5014523;28;20205;-55
2023/09/30 07:02:59;;;;;;;9.70;4.43;;;;;;;;;;5014174;28;20205;-55
2023/09/30 07:05:28;;;;;;;9.90;4.10;;;;;;;;;;5014031;28;20229;-59
2023/09/30 07:07:54;;;;;;;12.93;4.70;;;;;;;;;;5014074;28;20275;-55
2023/09/30 07:10:20;;;;;;;11.93;4.53;;;;;;;;;;5014435;28;20277;-56
2023/09/30 07:12:46;;;;;;;8.73;4.20;;;;;;;;;;5014181;28;20516;-56
2023/09/30 07:15:13;;;;;;;10.03;4.10;;;;;;;;;;5013982;28;20202;-55
2023/09/30 07:17:40;;;;;;;11.23;3.90;;;;;;;;;;5014017;28;20259;-56
2023/09/30 07:20:07;;;;;;;10.67;4.00;;;;;;;;;;5013843;28;20704;-55
2023/09/30 07:22:35;;;;;;;16.27;4.50;;;;;;;;;;5013927;28;20202;-54
2023/09/30 07:25:01;;;;;;;10.57;4.10;;;;;;;;;;5013647;28;20269;-56
2023/09/30 07:27:27;;;;;;;10.57;4.33;;;;;;;;;;5014188;28;20259;-56
2023/09/30 07:29:53;;;;;;;9.80;4.17;;;;;;;;;;5013654;28;20206;-53
2023/09/30 07:32:23;;;;;;;13.07;4.23;;;;;;;;;;5013724;28;20284;-54
2023/09/30 07:34:49;;;;;;;9.63;3.70;;;;;;;;;;5013411;28;20258;-53
2023/09/30 07:37:17;;;;;;;10.00;3.80;;;;;;;;;;5013552;28;20193;-54
2023/09/30 07:39:45;;;;;;;10.63;3.80;;;;;;;;;;5013625;28;20233;-54
2023/09/30 07:42:11;;;;;;;9.03;3.93;;;;;;;;;;5012573;28;20209;-54
2023/09/30 07:44:37;;;;;;;12.57;3.67;;;;;;;;;;5013679;28;20220;-55
2023/09/30 07:47:03;;;;;;;10.27;3.57;;;;;;;;;;5013396;28;20670;-54
2023/09/30 07:49:29;;;;;;;10.37;4.50;;;;;;;;;;5011897;28;20194;-54
2023/09/30 07:51:55;;;;;;;9.07;4.37;;;;;;;;;;5013119;28;20652;-54
2023/09/30 07:54:21;;;;;;;11.17;4.30;;;;;;;;;;5013051;28;20202;-54
2023/09/30 07:56:49;;;;;;;10.03;4.00;;;;;;;;;;5012784;28;20194;-54
2023/09/30 07:59:15;;;;;;;8.47;4.03;;;;;;;;;;5012867;28;20202;-54
2023/09/30 08:01:41;;;;;;;7.13;4.17;;;;;;;;;;5012913;28;20205;-54
2023/09/30 08:04:07;;;;;;;9.80;4.00;;;;;;;;;;5012733;28;20557;-54
2023/09/30 08:06:33;;;;;;;12.67;4.27;;;;;;;;;;5013289;28;20279;-54
2023/09/30 08:08:59;;;;;;;10.93;3.70;;;;;;;;;;5012613;28;20224;-54
2023/09/30 08:11:30;;;;;;;11.57;3.97;;;;;;;;;;5012733;28;20613;-54
2023/09/30 08:13:58;;;;;;;8.40;3.67;;;;;;;;;;5012636;28;20674;-54
2023/09/30 08:16:25;;;;;;;12.63;4.00;;;;;;;;;;5012834;28;20229;-54
2023/09/30 08:18:50;;;;;;;11.13;3.93;;;;;;;;;;5012741;28;20224;-54
2023/09/30 08:21:17;;;;;;;12.13;4.53;;;;;;;;;;5012649;28;20241;-54
2023/09/30 08:23:44;;;;;;;8.97;3.77;;;;;;;;;;5012518;28;20221;-54
2023/09/30 08:26:10;;;;;;;9.47;3.87;;;;;;;;;;5012269;28;20952;-54
2023/09/30 08:28:36;;;;;;;8.53;4.20;;;;;;;;;;5012824;28;20201;-54
2023/09/30 08:31:04;;;;;;;7.70;3.77;;;;;;;;;;5012606;28;20213;-54
2023/09/30 08:33:31;;;;;;;10.83;4.23;;;;;;;;;;5012385;28;20699;-55
2023/09/30 08:35:58;;;;;;;10.53;4.00;;;;;;;;;;5012151;28;20268;-55
2023/09/30 08:38:24;;;;;;;8.67;3.43;;;;;;;;;;5011930;28;20245;-55
2023/09/30 08:40:52;;;;;;;9.53;4.40;;;;;;;;;;5012011;28;20202;-55
2023/09/30 08:43:20;;;;;;;11.00;3.90;;;;;;;;;;5012698;28;20675;-55
2023/09/30 08:45:47;;;;;;;12.93;3.97;;;;;;;;;;5012497;28;20704;-55
2023/09/30 08:48:14;;;;;;;10.60;4.40;;;;;;;;;;5012351;28;20202;-55
2023/09/30 08:50:42;;;;;;;8.10;3.60;;;;;;;;;;5012347;28;20209;-54
2023/09/30 08:53:10;;;;;;;9.10;4.40;;;;;;;;;;5011340;28;20667;-55
2023/09/30 08:55:38;;;;;;;9.57;3.83;;;;;;;;;;5012310;28;20282;-55
2023/09/30 08:58:04;;;;;;;7.87;3.73;;;;;;;;;;5012202;28;20284;-54
2023/09/30 09:00:30;;;;;;;6.33;3.07;;;;;;;;;;5012289;28;20201;-55
2023/09/30 09:02:56;;;;;;;8.47;3.93;;;;;;;;;;5012000;28;20199;-55
2023/09/30 09:05:23;;;;;;;8.63;4.17;;;;;;;;;;5011878;28;20233;-55
2023/09/30 09:07:50;;;;;;;10.03;4.07;;;;;;;;;;5012012;28;20276;-55
2023/09/30 09:10:16;;;;;;;8.40;3.50;;;;;;;;;;5011685;28;20202;-55
2023/09/30 09:12:44;;;;;;;7.40;3.47;;;;;;;;;;5011219;28;20258;-55
2023/09/30 09:15:20;;;;;;;10.27;3.77;;;;;;;;;;5011765;28;20308;-55
2023/09/30 09:17:46;;;;;;;11.03;3.83;;;;;;;;;;5011935;28;20208;-55
2023/09/30 09:20:19;;;;;;;7.03;3.47;;;;;;;;;;5011511;28;20204;-54
2023/09/30 09:22:47;;;;;;;8.73;3.47;;;;;;;;;;5011746;28;20264;-54
2023/09/30 09:25:14;;;;;;;7.93;3.37;;;;;;;;;;5011721;28;20217;-54
2023/09/30 09:27:40;;;;;;;7.00;3.30;;;;;;;;;;5011661;28;20593;-54
2023/09/30 09:30:15;;;;;;;9.43;3.77;;;;;;;;;;5011597;28;20232;-55
2023/09/30 09:32:53;;;;;;;8.03;2.93;;;;;;;;;;5011839;28;20227;-55
2023/09/30 09:35:20;;;;;;;8.57;3.40;;;;;;;;;;5011731;28;20212;-55
2023/09/30 09:37:54;;;;;;;7.77;3.50;;;;;;;;;;5011493;28;20222;-55
2023/09/30 09:40:23;;;;;;;8.23;3.40;;;;;;;;;;5011477;28;20548;-55
2023/09/30 09:42:50;;;;;;;7.17;3.10;;;;;;;;;;5011687;28;20206;-55
2023/09/30 09:45:16;;;;;;;9.43;3.63;;;;;;;;;;5011462;28;20226;-54
2023/09/30 09:47:42;;;;;;;8.30;3.63;;;;;;;;;;5011505;28;20198;-54
2023/09/30 09:50:10;;;;;;;6.40;3.07;;;;;;;;;;5011352;28;20204;-55
2023/09/30 09:52:38;;;;;;;5.63;2.90;;;;;;;;;;5011423;28;20280;-55
2023/09/30 09:55:07;;;;;;;7.93;3.03;;;;;;;;;;5011265;28;20277;-55
2023/09/30 09:57:34;;;;;;;11.17;3.40;;;;;;;;;;5011763;28;20205;-55
2023/09/30 10:00:00;;;;;;;7.73;2.90;;;;;;;;;;5011474;28;20197;-55
2023/09/30 10:02:27;;;;;;;9.57;3.23;;;;;;;;;;5011416;28;20277;-55
2023/09/30 10:04:55;;;;;;;4.83;2.93;;;;;;;;;;5011467;28;20198;-55
2023/09/30 10:07:28;;;;;;;8.43;3.20;;;;;;;;;;5015266;28;20281;-55
2023/09/30 10:09:55;;;;;;;4.63;2.57;;;;;;;;;;5015056;28;20209;-55
2023/09/30 10:12:23;;;;;;;7.57;2.70;;;;;;;;;;5015365;28;20211;-55
2023/09/30 10:14:49;;;;;;;6.27;2.57;;;;;;;;;;5015140;28;20201;-55
2023/09/30 10:17:15;;;;;;;5.37;2.50;;;;;;;;;;5014821;28;20664;-55
2023/09/30 10:20:00;;;;;;;4.30;2.53;;;;;;;;;;5014433;28;20221;-54
2023/09/30 10:22:26;;;;;;;6.33;2.93;;;;;;;;;;5012787;28;20190;-54
2023/09/30 10:24:53;;;;;;;8.53;2.93;;;;;;;;;;5014526;28;20193;-54
2023/09/30 10:27:34;;;;;;;5.73;3.30;;;;;;;;;;5014112;28;20186;-55
2023/09/30 10:30:09;;;;;;;7.17;4.23;;;;;;;;;;5012482;28;20210;-55
2023/09/30 10:32:54;;;;;;;7.67;2.83;;;;;;;;;;5015037;28;20201;-55
2023/09/30 10:35:20;;;;;;;51.63;44.80;;;;;;;;;;5014802;28;20251;-55
2023/09/30 10:37:47;;;;;;;24.60;18.37;;;;;;;;;;5014633;28;20225;-55
2023/09/30 10:40:26;;;;;;;11.67;7.23;;;;;;;;;;5014647;28;20205;-54
2023/09/30 10:42:57;;;;;;;122.30;109.00;;;;;;;;;;5014613;28;20206;-55
2023/09/30 10:45:43;;;;;;;60.03;51.33;;;;;;;;;;5014728;28;20251;-55
2023/09/30 10:48:24;;;;;;;6.57;3.50;;;;;;;;;;5014425;28;20680;-55
2023/09/30 10:50:54;;;;;;;9.90;4.43;;;;;;;;;;5014579;28;20565;-55
2023/09/30 10:53:20;;;;;;;7.70;2.90;;;;;;;;;;5014617;28;20219;-55
2023/09/30 10:55:46;;;;;;;8.87;3.00;;;;;;;;;;5014544;28;20228;-55
2023/09/30 10:58:14;;;;;;;5.20;2.60;;;;;;;;;;5014247;28;20305;-55
2023/09/30 11:00:43;;;;;;;8.93;3.47;;;;;;;;;;5014474;28;20312;-55
2023/09/30 11:03:12;;;;;;;7.20;3.40;;;;;;;;;;5014232;28;20212;-55
2023/09/30 11:05:38;;;;;;;6.27;3.00;;;;;;;;;;5014351;28;20226;-55
2023/09/30 11:08:05;;;;;;;5.43;2.77;;;;;;;;;;5014181;28;20676;-55
2023/09/30 11:10:32;;;;;;;8.70;5.00;;;;;;;;;;5014076;28;20559;-55
2023/09/30 11:12:58;;;;;;;13.60;10.03;;;;;;;;;;5014207;28;20229;-55
2023/09/30 11:15:27;;;;;;;4.87;3.30;;;;;;;;;;5013839;28;20191;-55
2023/09/30 11:17:53;;;;;;;8.43;5.00;;;;;;;;;;5013602;28;20535;-55
2023/09/30 11:20:20;;;;;;;6.37;2.90;;;;;;;;;;5013891;28;20198;-55
2023/09/30 11:22:47;;;;;;;5.93;2.90;;;;;;;;;;5013990;28;20198;-55
2023/09/30 11:25:17;;;;;;;5.43;2.67;;;;;;;;;;5013542;28;20239;-55
2023/09/30 11:27:43;;;;;;;5.03;2.30;;;;;;;;;;5013961;28;20214;-55
2023/09/30 11:30:10;;;;;;;3.87;2.23;;;;;;;;;;5013607;28;20336;-55
2023/09/30 11:32:38;;;;;;;5.60;2.03;;;;;;;;;;5013978;28;20205;-55
2023/09/30 11:35:07;;;;;;;4.87;2.03;;;;;;;;;;5012386;28;20223;-55
2023/09/30 11:37:33;;;;;;;4.63;2.33;;;;;;;;;;5013790;28;20723;-54
2023/09/30 11:40:08;;;;;;;4.77;2.13;;;;;;;;;;5013443;28;20245;-55
2023/09/30 11:42:34;;;;;;;5.13;2.40;;;;;;;;;;5013686;28;20198;-55
2023/09/30 11:45:00;;;;;;;5.67;2.20;;;;;;;;;;5013357;28;20206;-55
2023/09/30 11:47:30;;;;;;;7.30;2.50;;;;;;;;;;5013376;28;20559;-55
2023/09/30 11:49:58;;;;;;;4.33;2.33;;;;;;;;;;5013330;28;20579;-55
2023/09/30 11:52:30;;;;;;;5.00;2.27;;;;;;;;;;5013336;28;20209;-55
2023/09/30 11:54:57;;;;;;;4.53;2.27;;;;;;;;;;5013335;28;20253;-55
2023/09/30 11:57:23;;;;;;;5.77;2.80;;;;;;;;;;5013232;28;20285;-55
2023/09/30 11:59:49;;;;;;;4.87;2.37;;;;;;;;;;5013203;28;20222;-55
2023/09/30 12:02:17;;;;;;;3.90;2.17;;;;;;;;;;5012945;28;20710;-55
2023/09/30 12:04:43;;;;;;;4.90;2.80;;;;;;;;;;5013117;28;20323;-55
2023/09/30 12:07:11;;;;;;;7.13;2.43;;;;;;;;;;5012822;28;20222;-55
2023/09/30 12:09:37;;;;;;;4.70;2.30;;;;;;;;;;5012968;28;20197;-54
2023/09/30 12:12:04;;;;;;;5.07;2.40;;;;;;;;;;5012891;28;20579;-54
2023/09/30 12:14:31;;;;;;;4.47;2.23;;;;;;;;;;5013071;28;20197;-54
2023/09/30 12:16:57;;;;;;;6.17;2.57;;;;;;;;;;5012914;28;20201;-55
2023/09/30 12:19:24;;;;;;;8.53;2.90;;;;;;;;;;5012628;28;20288;-55
2023/09/30 12:21:50;;;;;;;5.80;2.30;;;;;;;;;;5013030;28;20277;-55
2023/09/30 12:24:21;;;;;;;4.27;2.30;;;;;;;;;;5012656;28;20245;-55
2023/09/30 12:26:48;;;;;;;8.60;2.33;;;;;;;;;;5012716;28;20694;-55
2023/09/30 12:29:16;;;;;;;6.13;2.43;;;;;;;;;;5011874;28;20197;-55
2023/09/30 12:31:43;;;;;;;6.53;2.53;;;;;;;;;;5012708;28;20581;-55
2023/09/30 12:34:09;;;;;;;6.43;2.30;;;;;;;;;;5012358;28;20198;-54
2023/09/30 12:36:35;;;;;;;4.23;2.57;;;;;;;;;;5012270;28;20220;-54
2023/09/30 12:39:01;;;;;;;5.20;2.50;;;;;;;;;;5012224;28;20320;-55
2023/09/30 12:41:32;;;;;;;5.83;2.17;;;;;;;;;;5012472;28;20213;-53
2023/09/30 12:43:58;;;;;;;5.33;2.37;;;;;;;;;;5012329;28;20202;-56
2023/09/30 12:46:25;;;;;;;4.57;2.13;;;;;;;;;;5012199;28;20729;-55
2023/09/30 12:48:51;;;;;;;6.70;2.70;;;;;;;;;;5012344;28;20200;-56
2023/09/30 12:51:18;;;;;;;5.53;2.30;;;;;;;;;;5012329;28;20204;-55
2023/09/30 12:53:45;;;;;;;5.47;2.57;;;;;;;;;;5012442;28;20210;-56
2023/09/30 12:56:11;;;;;;;5.53;2.30;;;;;;;;;;5012155;28;20238;-55
2023/09/30 12:58:38;;;;;;;5.17;2.67;;;;;;;;;;5012338;28;20200;-56
2023/09/30 13:01:06;;;;;;;4.40;2.50;;;;;;;;;;5012127;28;20216;-54
2023/09/30 13:03:32;;;;;;;6.20;2.40;;;;;;;;;;5012117;28;20670;-55
2023/09/30 13:05:58;;;;;;;7.03;2.50;;;;;;;;;;5012051;28;20237;-56
2023/09/30 13:08:24;;;;;;;4.30;2.23;;;;;;;;;;5011900;28;20236;-56
2023/09/30 13:10:50;;;;;;;3.63;2.10;;;;;;;;;;5012040;28;20197;-55
2023/09/30 13:13:16;;;;;;;4.67;2.30;;;;;;;;;;5011295;28;20688;-55
2023/09/30 13:15:44;;;;;;;3.20;2.07;;;;;;;;;;5010968;28;20209;-55
2023/09/30 13:18:10;;;;;;;4.43;2.30;;;;;;;;;;5008707;28;20728;-55
2023/09/30 13:20:36;;;;;;;4.23;2.10;;;;;;;;;;5011528;28;20292;-56
2023/09/30 13:23:03;;;;;;;5.00;2.70;;;;;;;;;;5012000;28;20235;-55
2023/09/30 13:25:29;;;;;;;6.03;2.13;;;;;;;;;;5011558;28;20329;-55
2023/09/30 13:27:55;;;;;;;6.03;2.27;;;;;;;;;;5011550;28;20683;-55
2023/09/30 13:30:22;;;;;;;4.47;2.20;;;;;;;;;;5011514;28;20631;-55
2023/09/30 13:32:50;;;;;;;6.33;2.50;;;;;;;;;;5011531;28;20204;-55
2023/09/30 13:35:16;;;;;;;4.87;2.40;;;;;;;;;;5012035;28;20219;-54
2023/09/30 13:37:42;;;;;;;6.50;2.53;;;;;;;;;;5011694;28;20203;-55
2023/09/30 13:40:08;;;;;;;5.23;2.20;;;;;;;;;;5012835;28;20252;-55
2023/09/30 13:42:35;;;;;;;4.17;2.50;;;;;;;;;;5016050;28;20729;-55
2023/09/30 13:45:01;;;;;;;3.63;1.97;;;;;;;;;;5015919;28;20205;-55
2023/09/30 13:47:27;;;;;;;4.17;2.20;;;;;;;;;;5015832;28;20205;-55
2023/09/30 13:49:55;;;;;;;3.67;2.20;;;;;;;;;;5013973;28;20194;-55
2023/09/30 13:52:21;;;;;;;5.17;2.30;;;;;;;;;;5015366;28;20206;-56
2023/09/30 13:54:47;;;;;;;5.77;2.10;;;;;;;;;;5015612;28;20194;-56
2023/09/30 13:57:14;;;;;;;8.00;2.67;;;;;;;;;;5015318;28;20277;-56
2023/09/30 13:59:41;;;;;;;7.30;2.70;;;;;;;;;;5015443;28;20198;-56
2023/09/30 14:02:07;;;;;;;3.33;2.00;;;;;;;;;;5015227;28;20209;-56
2023/09/30 14:04:36;;;;;;;4.93;2.03;;;;;;;;;;5015497;28;20208;-56
2023/09/30 14:07:07;;;;;;;4.50;2.00;;;;;;;;;;5014873;28;20312;-56
2023/09/30 14:09:33;;;;;;;3.93;2.20;;;;;;;;;;5015365;28;20198;-56
2023/09/30 14:12:00;;;;;;;4.67;2.40;;;;;;;;;;5015115;28;20228;-56
2023/09/30 14:14:26;;;;;;;5.97;2.47;;;;;;;;;;5015187;28;20201;-53
2023/09/30 14:16:52;;;;;;;4.87;2.33;;;;;;;;;;5015174;28;20289;-53
2023/09/30 14:19:18;;;;;;;3.73;1.93;;;;;;;;;;5015016;28;20210;-54
2023/09/30 14:21:45;;;;;;;4.40;2.00;;;;;;;;;;5014850;28;20647;-56
2023/09/30 14:24:13;;;;;;;4.00;1.87;;;;;;;;;;5014684;28;20263;-56
2023/09/30 14:26:39;;;;;;;3.90;2.30;;;;;;;;;;5014772;28;20228;-56
2023/09/30 14:29:05;;;;;;;5.07;2.27;;;;;;;;;;5014705;28;20194;-56
2023/09/30 14:31:31;;;;;;;5.80;2.40;;;;;;;;;;5015198;28;20280;-56
2023/09/30 14:33:57;;;;;;;6.43;2.33;;;;;;;;;;5015152;28;20405;-55
2023/09/30 14:36:23;;;;;;;5.43;2.30;;;;;;;;;;5014855;28;20215;-55